Time;durP1;ratioP1;P1;durP2;ratioP2;P2;SDS_P1;SDS_P2;PMS_P1;PMS_P2;Temp;Humidity;BMP_temperature;BMP_pressure;BME280_temperature;BME280_humidity;BME280_pressure;Samples;Min_cycle;Max_cycle;Signal;HPM_P1;HPM_P2
2023/02/17 00:02:01;;;;;;;21.60;9.95;;;6.10;99.90;;;;;;5039115;28;20293;-30
2023/02/17 00:04:28;;;;;;;15.07;7.25;;;6.10;99.90;;;;;;5040824;28;20393;-29
2023/02/17 00:06:54;;;;;;;15.10;7.38;;;6.10;99.90;;;;;;5039023;28;20029;-29
2023/02/17 00:09:20;;;;;;;16.58;7.53;;;6.10;99.90;;;;;;5042911;28;20067;-31
2023/02/17 00:11:46;;;;;;;19.58;9.40;;;6.10;99.90;;;;;;5046915;28;20061;-30
2023/02/17 00:14:12;;;;;;;15.18;7.90;;;6.10;99.90;;;;;;5049809;28;20036;-31
2023/02/17 00:16:38;;;;;;;17.38;7.97;;;6.10;99.90;;;;;;5039819;28;20033;-29
2023/02/17 00:19:22;;;;;;;15.80;7.32;;;6.10;99.90;;;;;;5022753;28;22024;-32
2023/02/17 00:21:48;;;;;;;16.80;8.48;;;6.10;99.90;;;;;;5015097;28;20111;-34
2023/02/17 00:24:14;;;;;;;18.80;9.55;;;6.10;99.90;;;;;;5023882;28;20029;-29
2023/02/17 00:26:39;;;;;;;20.95;10.85;;;6.00;99.90;;;;;;5022408;28;20044;-29
2023/02/17 00:29:05;;;;;;;15.45;7.05;;;6.10;99.90;;;;;;5018721;28;20035;-32
2023/02/17 00:31:31;;;;;;;11.23;6.93;;;6.10;99.90;;;;;;5019081;28;20567;-35
2023/02/17 00:33:56;;;;;;;13.50;7.38;;;6.10;99.90;;;;;;5018248;28;20033;-29
2023/02/17 00:36:23;;;;;;;10.63;6.68;;;6.20;99.90;;;;;;5022907;28;20029;-31
2023/02/17 00:38:49;;;;;;;12.27;6.82;;;6.20;99.90;;;;;;5020473;28;20033;-30
2023/02/17 00:41:18;;;;;;;13.38;6.95;;;6.20;99.90;;;;;;5016698;28;20288;-33
2023/02/17 00:43:44;;;;;;;15.15;6.72;;;6.20;99.90;;;;;;5017870;28;20046;-32
2023/02/17 00:46:10;;;;;;;13.05;6.57;;;6.20;99.90;;;;;;5022631;28;20424;-30
2023/02/17 00:48:35;;;;;;;12.82;6.63;;;6.20;99.90;;;;;;5020219;28;20106;-32
2023/02/17 00:51:01;;;;;;;11.80;5.82;;;6.30;99.90;;;;;;5018422;28;20029;-33
2023/02/17 00:53:27;;;;;;;13.77;6.45;;;6.30;99.90;;;;;;5017248;28;20573;-34
2023/02/17 00:55:52;;;;;;;12.00;6.55;;;6.30;99.90;;;;;;5027577;28;20048;-29
2023/02/17 00:58:18;;;;;;;15.23;7.10;;;6.40;99.90;;;;;;5047340;28;20021;-31
2023/02/17 01:00:43;;;;;;;56.90;22.30;;;6.50;99.90;;;;;;5049005;28;20123;-30
2023/02/17 01:03:09;;;;;;;46.85;20.30;;;6.60;99.90;;;;;;5042333;28;20064;-30
2023/02/17 01:05:41;;;;;;;32.85;14.02;;;6.70;99.90;;;;;;5036491;28;20601;-30
2023/02/17 01:08:06;;;;;;;16.25;8.60;;;6.80;99.90;;;;;;5022051;28;20036;-34
2023/02/17 01:10:34;;;;;;;12.10;6.25;;;6.80;99.90;;;;;;5018406;28;20390;-29
2023/02/17 01:13:00;;;;;;;11.90;5.85;;;6.90;99.90;;;;;;5018361;28;20394;-31
2023/02/17 01:15:25;;;;;;;9.38;6.03;;;7.00;99.90;;;;;;5021178;28;20044;-32
2023/02/17 01:17:51;;;;;;;12.27;5.07;;;7.00;99.90;;;;;;5018766;28;21081;-32
2023/02/17 01:20:17;;;;;;;10.15;5.47;;;7.00;99.90;;;;;;5019985;28;20029;-29
2023/02/17 01:22:42;;;;;;;9.98;6.30;;;7.10;99.90;;;;;;5020392;28;20021;-29
2023/02/17 01:25:08;;;;;;;9.75;5.03;;;7.10;99.90;;;;;;5023806;28;20083;-30
2023/02/17 01:27:34;;;;;;;8.00;4.18;;;7.10;99.90;;;;;;5023326;28;21555;-29
2023/02/17 01:30:00;;;;;;;11.07;5.90;;;7.10;99.90;;;;;;5019647;28;20117;-34
2023/02/17 01:32:25;;;;;;;8.10;4.55;;;7.10;99.90;;;;;;5020318;28;20383;-29
2023/02/17 01:34:51;;;;;;;9.05;5.30;;;7.20;99.90;;;;;;5021121;28;20091;-30
2023/02/17 01:37:16;;;;;;;11.07;5.20;;;7.20;99.90;;;;;;5022663;28;20037;-32
2023/02/17 01:39:42;;;;;;;9.57;5.53;;;7.30;99.90;;;;;;5021343;28;20036;-29
2023/02/17 01:42:21;;;;;;;8.75;5.30;;;7.30;99.90;;;;;;5017951;28;20580;-33
2023/02/17 01:45:28;;;;;;;8.25;4.72;;;7.40;99.90;;;;;;5020285;28;20056;-29
2023/02/17 01:48:11;;;;;;;8.73;5.00;;;7.40;99.90;;;;;;4985391;28;20087;-31
2023/02/17 01:50:45;;;;;;;11.05;5.50;;;7.40;99.90;;;;;;5019271;28;20036;-31
2023/02/17 01:53:17;;;;;;;10.82;4.93;;;7.40;99.90;;;;;;5020032;28;20089;-29
2023/02/17 01:55:44;;;;;;;8.90;4.88;;;7.30;99.90;;;;;;5021444;28;20056;-29
2023/02/17 01:58:14;;;;;;;11.50;5.83;;;7.30;99.90;;;;;;5023637;28;20040;-32
2023/02/17 02:00:40;;;;;;;8.00;5.63;;;7.30;99.90;;;;;;5020565;28;20288;-31
2023/02/17 02:03:09;;;;;;;11.82;5.78;;;7.30;99.90;;;;;;5037858;28;20595;-30
2023/02/17 02:05:36;;;;;;;9.60;4.95;;;7.40;99.90;;;;;;5052609;28;20501;-29
2023/02/17 02:08:02;;;;;;;8.70;4.13;;;7.40;99.90;;;;;;5039966;28;20061;-30
2023/02/17 02:10:27;;;;;;;10.90;4.60;;;7.50;99.90;;;;;;5043482;28;20083;-29
2023/02/17 02:12:53;;;;;;;11.05;4.95;;;7.50;99.90;;;;;;5037395;28;20060;-30
2023/02/17 02:15:21;;;;;;;8.48;5.10;;;7.50;99.90;;;;;;5048218;28;20070;-31
2023/02/17 02:18:27;;;;;;;10.50;5.57;;;7.50;99.90;;;;;;5042927;28;20417;-30
2023/02/17 02:21:11;;;;;;;9.80;4.70;;;7.60;99.90;;;;;;5017163;28;20072;-30
2023/02/17 02:23:51;;;;;;;10.90;5.25;;;7.60;99.90;;;;;;5040797;28;20132;-30
2023/02/17 02:26:46;;;;;;;9.50;4.82;;;7.60;99.90;;;;;;5044597;28;20032;-29
2023/02/17 02:29:46;;;;;;;5.85;3.70;;;7.60;99.90;;;;;;4984329;28;20503;-29
2023/02/17 02:39:13;;;;;;;8.43;4.07;;;7.80;99.90;;;;;;5024655;28;20068;-29
2023/02/17 02:41:48;;;;;;;8.68;4.88;;;7.80;99.90;;;;;;5021041;28;20042;-30
2023/02/17 02:44:18;;;;;;;8.20;5.13;;;7.80;99.90;;;;;;5020765;28;20040;-30
2023/02/17 02:46:43;;;;;;;5.55;4.22;;;7.80;99.90;;;;;;5021404;28;20024;-31
2023/02/17 02:49:10;;;;;;;8.18;4.38;;;7.80;99.90;;;;;;5021200;28;20537;-32
2023/02/17 02:51:52;;;;;;;8.23;4.38;;;7.80;99.90;;;;;;5021285;28;20026;-29
2023/02/17 02:54:27;;;;;;;8.25;4.47;;;7.80;99.90;;;;;;5017828;28;20025;-33
2023/02/17 02:56:58;;;;;;;9.48;4.70;;;7.90;99.90;;;;;;5026670;28;20029;-29
2023/02/17 02:59:45;;;;;;;5.38;3.63;;;7.90;99.90;;;;;;5048898;28;20462;-30
2023/02/17 03:02:51;;;;;;;6.50;3.28;;;7.90;99.90;;;;;;5016981;28;21528;-30
2023/02/17 03:05:54;;;;;;;7.75;4.03;;;8.00;99.90;;;;;;5032595;28;20156;-30
2023/02/17 03:08:36;;;;;;;6.82;4.07;;;8.00;98.10;;;;;;5035690;28;20553;-30
2023/02/17 03:11:03;;;;;;;8.00;3.75;;;8.10;97.30;;;;;;5046273;28;20464;-29
2023/02/17 03:13:31;;;;;;;5.38;3.35;;;8.20;98.10;;;;;;5038564;28;20071;-29
2023/02/17 03:15:57;;;;;;;7.20;3.88;;;8.20;96.50;;;;;;5046092;28;20036;-30
2023/02/17 03:18:22;;;;;;;4.90;3.58;;;8.20;95.40;;;;;;5045197;28;20493;-29
2023/02/17 03:20:53;;;;;;;7.18;3.75;;;8.30;96.10;;;;;;5036196;28;20036;-31
2023/02/17 03:23:19;;;;;;;4.38;3.13;;;8.30;96.00;;;;;;5036041;28;20022;-30
2023/02/17 03:25:46;;;;;;;6.63;3.38;;;8.30;96.30;;;;;;5040092;28;20041;-30
2023/02/17 03:28:12;;;;;;;8.13;5.10;;;8.20;96.00;;;;;;5042095;28;20029;-29
2023/02/17 03:30:39;;;;;;;4.93;4.00;;;8.20;96.50;;;;;;5044017;28;20021;-29
2023/02/17 03:33:04;;;;;;;7.55;4.20;;;8.30;95.70;;;;;;5044780;28;20431;-29
2023/02/17 03:35:30;;;;;;;6.72;4.28;;;8.30;96.60;;;;;;5035951;28;20033;-30
2023/02/17 03:37:55;;;;;;;7.13;4.25;;;8.20;96.70;;;;;;5051842;28;20048;-30
2023/02/17 03:40:21;;;;;;;6.65;3.95;;;8.20;96.40;;;;;;5046982;28;20099;-29
2023/02/17 03:42:47;;;;;;;7.97;3.97;;;8.20;97.30;;;;;;5037515;28;20033;-29
2023/02/17 03:45:12;;;;;;;10.48;5.20;;;8.20;96.20;;;;;;5038485;28;20383;-29
2023/02/17 03:47:38;;;;;;;7.93;3.78;;;8.20;96.00;;;;;;5044868;28;20487;-29
2023/02/17 03:50:04;;;;;;;7.68;3.80;;;8.30;95.60;;;;;;5046027;28;20057;-29
2023/02/17 03:52:30;;;;;;;7.40;3.88;;;8.30;96.30;;;;;;5041720;28;20393;-30
2023/02/17 03:54:55;;;;;;;7.63;4.35;;;8.40;95.10;;;;;;5045856;28;20030;-30
2023/02/17 03:57:21;;;;;;;9.63;4.72;;;8.40;95.50;;;;;;5037808;28;20037;-29
2023/02/17 03:59:47;;;;;;;7.90;3.38;;;8.40;95.80;;;;;;5044628;28;20056;-29
2023/02/17 04:02:12;;;;;;;5.93;3.70;;;8.40;93.30;;;;;;5042926;28;20035;-29
2023/02/17 04:04:38;;;;;;;4.15;2.25;;;8.50;94.20;;;;;;5038830;28;20389;-29
2023/02/17 04:07:04;;;;;;;6.82;4.18;;;8.60;93.40;;;;;;5047079;28;20030;-32
2023/02/17 04:09:29;;;;;;;5.18;3.67;;;8.50;94.90;;;;;;5046380;28;20033;-30
2023/02/17 04:11:55;;;;;;;5.30;3.72;;;8.50;94.90;;;;;;5035759;28;20533;-28
2023/02/17 04:14:20;;;;;;;5.63;3.63;;;8.50;95.10;;;;;;5047681;28;20021;-29
2023/02/17 04:16:46;;;;;;;5.20;3.42;;;8.50;94.30;;;;;;5044576;28;20056;-30
2023/02/17 04:19:12;;;;;;;5.85;3.83;;;8.60;94.30;;;;;;5047236;28;20049;-29
2023/02/17 04:21:37;;;;;;;5.32;2.97;;;8.60;94.40;;;;;;5051238;28;20040;-30
2023/02/17 04:24:03;;;;;;;4.95;2.78;;;8.50;94.00;;;;;;5040143;28;20037;-29
2023/02/17 04:26:29;;;;;;;6.63;4.13;;;8.60;94.50;;;;;;5050544;28;20107;-30
2023/02/17 04:28:55;;;;;;;5.35;3.45;;;8.60;95.00;;;;;;5056213;28;20049;-30
2023/02/17 04:31:21;;;;;;;4.25;2.95;;;8.70;94.30;;;;;;5038672;28;20486;-29
2023/02/17 04:33:47;;;;;;;4.47;3.08;;;8.70;94.00;;;;;;5039973;28;20029;-30
2023/02/17 04:36:12;;;;;;;5.95;3.30;;;8.70;94.90;;;;;;5043418;28;20442;-30
2023/02/17 04:38:38;;;;;;;6.45;3.03;;;8.70;94.20;;;;;;5040894;28;20553;-29
2023/02/17 04:41:05;;;;;;;3.42;1.85;;;8.80;94.40;;;;;;5020686;28;20080;-33
2023/02/17 04:43:30;;;;;;;3.97;2.45;;;8.80;94.20;;;;;;5019110;28;20034;-30
2023/02/17 04:45:57;;;;;;;3.88;3.25;;;8.80;93.20;;;;;;5021841;28;20604;-30
2023/02/17 04:48:23;;;;;;;4.55;3.35;;;8.80;94.70;;;;;;5019222;28;20044;-33
2023/02/17 04:50:49;;;;;;;3.90;2.65;;;8.80;93.50;;;;;;5021321;28;20030;-30
2023/02/17 04:53:14;;;;;;;6.22;3.35;;;8.90;93.40;;;;;;5017313;28;20034;-29
2023/02/17 04:55:41;;;;;;;4.97;2.67;;;8.80;93.40;;;;;;5019567;28;20082;-30
2023/02/17 04:58:07;;;;;;;6.60;3.15;;;8.80;94.20;;;;;;5023331;28;20474;-30
2023/02/17 05:00:33;;;;;;;3.50;2.75;;;8.80;95.60;;;;;;5021145;28;20486;-33
2023/02/17 05:02:58;;;;;;;4.25;2.28;;;8.90;95.50;;;;;;5021615;28;20033;-31
2023/02/17 05:05:24;;;;;;;3.30;2.70;;;8.90;95.60;;;;;;5021205;28;20040;-32
2023/02/17 05:07:50;;;;;;;6.85;2.95;;;8.90;95.00;;;;;;5023509;28;20063;-32
2023/02/17 05:10:16;;;;;;;6.35;2.75;;;8.90;95.80;;;;;;5021449;28;20039;-32
2023/02/17 05:12:42;;;;;;;3.58;2.58;;;8.90;96.10;;;;;;5022656;28;20533;-31
2023/02/17 05:15:08;;;;;;;3.05;2.70;;;8.90;95.90;;;;;;5021883;28;20040;-35
2023/02/17 05:17:34;;;;;;;4.47;2.85;;;9.10;95.40;;;;;;5031405;28;20084;-30
2023/02/17 05:20:00;;;;;;;8.07;4.15;;;9.10;94.50;;;;;;5019829;28;20411;-33
2023/02/17 05:22:26;;;;;;;4.65;2.92;;;9.20;95.80;;;;;;5022824;28;20039;-31
2023/02/17 05:24:52;;;;;;;7.85;3.75;;;9.10;96.50;;;;;;5020602;28;20025;-33
2023/02/17 05:27:17;;;;;;;3.58;2.78;;;9.10;97.10;;;;;;5025723;28;20112;-31
2023/02/17 05:29:43;;;;;;;5.38;2.95;;;9.10;98.30;;;;;;5020957;28;20037;-32
2023/02/17 05:32:08;;;;;;;6.75;3.30;;;9.00;99.30;;;;;;5028201;28;20040;-30
2023/02/17 05:34:34;;;;;;;5.53;3.58;;;9.00;99.80;;;;;;5042679;28;20029;-30
2023/02/17 05:37:00;;;;;;;6.72;4.00;;;9.00;99.90;;;;;;5047267;28;20037;-30
2023/02/17 05:39:26;;;;;;;4.43;2.85;;;8.90;99.90;;;;;;5054862;28;20426;-30
2023/02/17 05:41:51;;;;;;;3.92;2.25;;;8.80;99.90;;;;;;5050564;28;20052;-31
2023/02/17 05:44:17;;;;;;;7.90;4.28;;;8.90;99.60;;;;;;5052288;28;20029;-29
2023/02/17 05:46:42;;;;;;;5.47;3.55;;;8.90;99.90;;;;;;5053745;28;20440;-30
2023/02/17 05:49:08;;;;;;;5.20;2.95;;;8.80;99.90;;;;;;5042202;28;20028;-29
2023/02/17 05:51:34;;;;;;;4.38;2.47;;;8.80;99.90;;;;;;5049144;28;20079;-31
2023/02/17 05:53:59;;;;;;;3.80;2.90;;;8.90;98.70;;;;;;5048656;28;20029;-29
2023/02/17 05:56:25;;;;;;;4.95;3.92;;;8.80;97.90;;;;;;5053896;28;20029;-30
2023/02/17 05:58:51;;;;;;;3.80;2.67;;;8.80;98.80;;;;;;5037085;28;20367;-31
2023/02/17 06:01:16;;;;;;;10.50;4.38;;;9.00;96.10;;;;;;5042796;28;20124;-30
2023/02/17 06:03:42;;;;;;;3.53;2.55;;;9.00;96.80;;;;;;5042044;28;20021;-31
2023/02/17 06:06:08;;;;;;;3.80;2.15;;;9.00;96.10;;;;;;5035057;28;20033;-30
2023/02/17 06:08:34;;;;;;;5.80;3.88;;;9.00;95.80;;;;;;5042398;28;20030;-30
2023/02/17 06:10:59;;;;;;;3.15;2.58;;;9.00;95.50;;;;;;5034402;28;20587;-30
2023/02/17 06:13:25;;;;;;;4.15;2.58;;;9.00;94.80;;;;;;5040857;28;20029;-29
2023/02/17 06:15:50;;;;;;;2.10;1.95;;;9.10;95.30;;;;;;5048463;28;20595;-30
2023/02/17 06:18:16;;;;;;;8.82;3.85;;;9.10;95.20;;;;;;5037077;28;20054;-29
2023/02/17 06:20:42;;;;;;;5.80;3.17;;;9.10;94.40;;;;;;5044355;28;20037;-29
2023/02/17 06:23:08;;;;;;;5.15;2.95;;;9.10;95.10;;;;;;5040982;28;20029;-30
2023/02/17 06:25:33;;;;;;;8.93;3.97;;;9.10;95.60;;;;;;5039564;28;20025;-30
2023/02/17 06:27:59;;;;;;;3.95;3.10;;;9.30;93.60;;;;;;5047600;28;20025;-30
2023/02/17 06:30:24;;;;;;;5.13;2.60;;;9.30;93.30;;;;;;5047877;28;20022;-30
2023/02/17 06:32:50;;;;;;;3.15;2.60;;;9.20;95.00;;;;;;5035378;28;20447;-32
2023/02/17 06:35:16;;;;;;;7.10;2.85;;;9.20;95.00;;;;;;5048198;28;20082;-31
2023/02/17 06:37:41;;;;;;;4.68;2.80;;;9.20;95.10;;;;;;5044797;28;20482;-31
2023/02/17 06:40:08;;;;;;;4.05;2.97;;;9.20;95.70;;;;;;5042827;28;20513;-29
2023/02/17 06:42:34;;;;;;;4.93;3.20;;;9.40;93.30;;;;;;5037166;28;20057;-30
2023/02/17 06:45:02;;;;;;;13.18;2.97;;;9.30;94.50;;;;;;5043770;28;20076;-31
2023/02/17 06:47:27;;;;;;;3.45;2.70;;;9.30;95.40;;;;;;5043028;28;20024;-30
2023/02/17 06:49:53;;;;;;;3.97;2.55;;;9.40;94.30;;;;;;5050764;28;20051;-30
2023/02/17 06:52:19;;;;;;;5.18;3.25;;;9.40;95.50;;;;;;5040344;28;20525;-30
2023/02/17 06:54:46;;;;;;;3.95;2.25;;;9.40;95.20;;;;;;5043081;28;20033;-32
2023/02/17 06:57:11;;;;;;;4.45;2.90;;;9.40;96.60;;;;;;5043828;28;20041;-31
2023/02/17 06:59:37;;;;;;;4.53;2.15;;;9.30;97.00;;;;;;5037933;28;20029;-29
2023/02/17 07:02:02;;;;;;;3.33;2.45;;;9.40;97.00;;;;;;5046101;28;20029;-31
2023/02/17 07:04:28;;;;;;;4.50;2.53;;;9.30;97.70;;;;;;5036094;28;20056;-29
2023/02/17 07:06:53;;;;;;;4.93;2.53;;;9.40;95.80;;;;;;5039278;28;20104;-30
2023/02/17 07:09:19;;;;;;;4.80;3.15;;;9.40;96.90;;;;;;5041501;28;20578;-30
2023/02/17 07:11:45;;;;;;;5.57;3.30;;;9.50;95.70;;;;;;5039984;28;20032;-29
2023/02/17 07:14:10;;;;;;;6.30;2.60;;;9.40;96.60;;;;;;5039226;28;20044;-30
2023/02/17 07:16:38;;;;;;;2.90;2.33;;;9.50;97.10;;;;;;5074689;28;20021;-33
2023/02/17 07:19:03;;;;;;;3.63;2.65;;;9.50;98.40;;;;;;5033158;28;20108;-29
2023/02/17 07:21:29;;;;;;;7.55;4.10;;;9.40;99.20;;;;;;5044806;28;20116;-30
2023/02/17 07:23:54;;;;;;;3.92;3.33;;;9.40;99.40;;;;;;5041560;28;20056;-30
2023/02/17 07:26:20;;;;;;;7.85;3.35;;;9.40;99.00;;;;;;5047376;28;20466;-32
2023/02/17 07:28:46;;;;;;;3.35;2.03;;;9.50;99.40;;;;;;5053376;28;20040;-33
2023/02/17 07:31:14;;;;;;;5.43;3.25;;;9.40;99.60;;;;;;5035813;28;20052;-31
2023/02/17 07:33:41;;;;;;;6.78;3.17;;;9.40;99.90;;;;;;5034713;28;20528;-31
2023/02/17 07:36:08;;;;;;;3.22;2.75;;;9.40;99.90;;;;;;5046848;28;20474;-30
2023/02/17 07:38:34;;;;;;;4.40;3.28;;;9.50;99.60;;;;;;5031144;28;20049;-31
2023/02/17 07:41:14;;;;;;;8.43;3.72;;;9.60;99.20;;;;;;5078475;28;20029;-32
2023/02/17 07:43:40;;;;;;;9.25;2.95;;;9.60;98.80;;;;;;5036881;28;20128;-30
2023/02/17 07:46:06;;;;;;;4.75;3.03;;;9.70;98.20;;;;;;5041556;28;20446;-31
2023/02/17 07:48:31;;;;;;;5.53;2.75;;;9.60;99.70;;;;;;5035997;28;20029;-32
2023/02/17 07:51:03;;;;;;;4.20;2.53;;;9.60;98.50;;;;;;5041077;28;20086;-32
2023/02/17 07:53:29;;;;;;;3.00;2.65;;;9.70;98.80;;;;;;5036402;28;20056;-31
2023/02/17 07:55:55;;;;;;;4.00;2.65;;;9.70;97.40;;;;;;5038059;28;20058;-31
2023/02/17 07:58:20;;;;;;;3.85;2.55;;;9.70;98.40;;;;;;5053081;28;20472;-30
2023/02/17 08:00:46;;;;;;;4.03;2.83;;;9.80;98.10;;;;;;5037913;28;20040;-30
2023/02/17 08:03:11;;;;;;;5.20;2.83;;;9.90;96.50;;;;;;5039212;28;20553;-32
2023/02/17 08:05:40;;;;;;;4.72;2.83;;;9.90;97.30;;;;;;5040955;28;20462;-30
2023/02/17 08:13:34;;;;;;;9.38;3.92;;;9.80;98.40;;;;;;5037418;28;20090;-31
2023/02/17 08:15:59;;;;;;;3.20;2.25;;;9.90;99.50;;;;;;5042605;28;20041;-30
2023/02/17 08:18:25;;;;;;;6.30;3.20;;;9.90;99.90;;;;;;5042530;28;20040;-29
2023/02/17 08:20:51;;;;;;;4.28;2.67;;;10.00;97.60;;;;;;5035556;28;20120;-30
2023/02/17 08:23:19;;;;;;;5.93;3.22;;;10.00;98.90;;;;;;5040058;28;20132;-30
2023/02/17 08:25:44;;;;;;;5.72;2.78;;;10.00;99.90;;;;;;5034907;28;20041;-29
2023/02/17 08:28:10;;;;;;;5.10;3.53;;;9.90;99.90;;;;;;5044743;28;20028;-30
2023/02/17 08:30:37;;;;;;;6.47;2.80;;;9.90;99.90;;;;;;5042003;28;20030;-34
2023/02/17 08:33:03;;;;;;;5.20;3.70;;;9.90;99.90;;;;;;5049912;28;20025;-31
2023/02/17 08:35:29;;;;;;;5.15;3.35;;;10.10;99.90;;;;;;5050683;28;20550;-31
2023/02/17 08:37:55;;;;;;;4.35;2.80;;;10.00;99.90;;;;;;5046629;28;20041;-30
2023/02/17 08:40:20;;;;;;;5.82;3.70;;;9.90;99.90;;;;;;5044077;28;20035;-30
2023/02/17 08:42:47;;;;;;;5.95;3.00;;;9.90;99.90;;;;;;5047102;28;20377;-30
2023/02/17 08:45:14;;;;;;;5.53;3.13;;;9.80;99.90;;;;;;5046394;28;20017;-31
2023/02/17 08:47:40;;;;;;;3.38;2.63;;;10.00;99.90;;;;;;5050378;28;20473;-31
2023/02/17 08:50:07;;;;;;;3.47;2.72;;;10.10;99.90;;;;;;5042288;28;20021;-30
2023/02/17 08:52:34;;;;;;;3.22;2.58;;;10.20;99.90;;;;;;5042701;28;20048;-31
2023/02/17 08:55:00;;;;;;;3.58;2.95;;;10.10;99.90;;;;;;5044346;28;20033;-30
2023/02/17 08:57:26;;;;;;;6.35;3.13;;;10.20;99.90;;;;;;5049470;28;20051;-31
2023/02/17 08:59:52;;;;;;;5.80;2.67;;;10.20;99.90;;;;;;5046987;28;20036;-30
2023/02/17 09:02:19;;;;;;;5.75;2.63;;;10.30;99.90;;;;;;5040709;28;20045;-31
2023/02/17 09:04:44;;;;;;;4.05;2.13;;;10.30;99.90;;;;;;5040706;28;20074;-31
2023/02/17 09:07:12;;;;;;;4.18;2.58;;;10.40;99.90;;;;;;5049394;28;20401;-30
2023/02/17 09:09:38;;;;;;;5.15;3.50;;;10.40;99.90;;;;;;5064664;28;20040;-35
2023/02/17 09:12:04;;;;;;;5.50;2.85;;;10.50;99.90;;;;;;5046540;28;20495;-30
2023/02/17 09:14:30;;;;;;;7.28;3.05;;;10.50;99.60;;;;;;5037997;28;20025;-30
2023/02/17 09:16:56;;;;;;;5.28;3.05;;;10.70;99.90;;;;;;5039662;28;20028;-31
2023/02/17 09:19:22;;;;;;;3.15;2.20;;;10.80;98.90;;;;;;5044884;28;20480;-31
2023/02/17 09:21:48;;;;;;;7.03;2.83;;;11.00;99.80;;;;;;5051663;28;20481;-30
2023/02/17 09:24:15;;;;;;;3.85;3.05;;;11.10;98.50;;;;;;5045597;28;20029;-31
2023/02/17 09:26:41;;;;;;;2.80;2.20;;;11.20;97.50;;;;;;5044547;28;20096;-31
2023/02/17 09:29:07;;;;;;;4.97;2.67;;;11.20;97.90;;;;;;5053385;28;20556;-30
2023/02/17 09:31:34;;;;;;;6.22;3.33;;;11.30;96.70;;;;;;5052415;28;20509;-32
2023/02/17 09:34:00;;;;;;;4.13;2.70;;;11.30;96.00;;;;;;5041026;28;20040;-31
2023/02/17 09:36:29;;;;;;;4.18;2.28;;;11.30;96.70;;;;;;5037806;28;20025;-30
2023/02/17 09:38:56;;;;;;;4.32;3.17;;;11.30;98.10;;;;;;5047754;28;20045;-29
2023/02/17 09:41:36;;;;;;;4.80;3.80;;;11.40;96.40;;;;;;5045292;28;20021;-31
2023/02/17 09:44:05;;;;;;;6.45;4.20;;;11.50;95.00;;;;;;5047815;28;20673;-30
2023/02/17 09:46:36;;;;;;;7.53;2.75;;;11.60;95.00;;;;;;5046715;28;20027;-31
2023/02/17 09:49:10;;;;;;;4.68;2.25;;;11.80;96.00;;;;;;5050420;28;20037;-31
2023/02/17 09:51:42;;;;;;;4.72;3.63;;;11.90;97.70;;;;;;5046723;28;20140;-32
2023/02/17 09:54:22;;;;;;;5.68;3.80;;;11.90;94.60;;;;;;5037411;28;20021;-30
2023/02/17 09:56:51;;;;;;;5.43;3.65;;;11.80;94.70;;;;;;5046235;28;20040;-30
2023/02/17 09:59:35;;;;;;;6.45;2.25;;;11.70;95.70;;;;;;5039470;28;20521;-30
2023/02/17 10:02:06;;;;;;;4.30;3.10;;;11.80;97.40;;;;;;5042865;28;20049;-30
2023/02/17 10:04:42;;;;;;;5.22;3.08;;;11.80;95.00;;;;;;5041574;28;20028;-31
2023/02/17 10:07:20;;;;;;;5.78;3.40;;;11.90;95.40;;;;;;5041765;28;20148;-32
2023/02/17 10:10:03;;;;;;;3.03;2.75;;;11.90;95.50;;;;;;5063632;28;20026;-33
2023/02/17 10:12:37;;;;;;;5.18;3.50;;;12.20;93.70;;;;;;5049505;28;20033;-30
2023/02/17 10:15:15;;;;;;;3.17;2.85;;;12.40;94.70;;;;;;5042346;28;20389;-29
2023/02/17 10:18:09;;;;;;;4.13;3.38;;;12.50;95.50;;;;;;5034357;28;20033;-30
2023/02/17 10:20:49;;;;;;;4.53;2.50;;;12.40;93.10;;;;;;5039244;28;20033;-30
2023/02/17 10:23:18;;;;;;;5.88;2.95;;;12.50;96.90;;;;;;5043431;28;20139;-30
2023/02/17 10:26:19;;;;;;;6.03;3.25;;;12.60;93.30;;;;;;5042833;28;20164;-29
2023/02/17 10:28:52;;;;;;;6.28;3.38;;;12.50;93.10;;;;;;5042829;28;20409;-33
2023/02/17 10:31:47;;;;;;;4.25;3.55;;;12.50;93.10;;;;;;5037180;28;20136;-29
2023/02/17 10:34:16;;;;;;;6.53;3.80;;;12.50;93.30;;;;;;5045982;28;20037;-31
2023/02/17 10:36:52;;;;;;;2.55;2.15;;;12.50;93.40;;;;;;5040578;28;20068;-29
2023/02/17 10:39:35;;;;;;;4.03;3.22;;;12.50;95.00;;;;;;5041504;28;20033;-31
2023/02/17 10:42:01;;;;;;;5.05;3.85;;;12.60;92.50;;;;;;5028407;28;20044;-31
2023/02/17 10:44:36;;;;;;;4.68;3.45;;;12.90;93.50;;;;;;5030463;28;20064;-33
2023/02/17 10:47:03;;;;;;;2.92;2.63;;;12.90;92.60;;;;;;5041034;28;20071;-33
2023/02/17 10:49:31;;;;;;;6.07;2.72;;;12.70;92.90;;;;;;5027406;28;20023;-36
2023/02/17 10:52:12;;;;;;;4.63;3.60;;;12.60;93.80;;;;;;5042694;28;20036;-29
2023/02/17 10:54:44;;;;;;;6.38;3.22;;;12.50;94.00;;;;;;5039939;28;20487;-31
2023/02/17 10:57:12;;;;;;;4.60;2.58;;;12.50;93.80;;;;;;5038301;28;20029;-29
2023/02/17 10:59:41;;;;;;;3.45;2.03;;;12.50;93.80;;;;;;5037006;28;20095;-29
2023/02/17 11:02:35;;;;;;;4.78;2.65;;;12.60;96.40;;;;;;5040394;28;20434;-31
2023/02/17 11:05:01;;;;;;;2.42;1.90;;;12.60;95.20;;;;;;5039932;28;20490;-29
2023/02/17 11:07:31;;;;;;;3.67;2.85;;;12.60;96.10;;;;;;5049301;28;20029;-29
2023/02/17 11:10:01;;;;;;;6.47;3.35;;;12.60;95.20;;;;;;5048490;28;20116;-29
2023/02/17 11:12:39;;;;;;;3.42;2.70;;;12.60;95.00;;;;;;5047559;28;20072;-29
2023/02/17 11:15:16;;;;;;;5.70;2.60;;;12.50;95.30;;;;;;5044963;28;20385;-29
2023/02/17 11:17:43;;;;;;;4.32;2.50;;;12.50;95.60;;;;;;5044373;28;20434;-29
2023/02/17 11:20:33;;;;;;;3.17;2.40;;;12.50;96.90;;;;;;5038278;28;20032;-29
2023/02/17 11:23:00;;;;;;;2.92;2.17;;;12.50;96.50;;;;;;5052978;28;20029;-29
2023/02/17 11:25:31;;;;;;;5.55;3.22;;;12.50;96.10;;;;;;5034717;28;20032;-29
2023/02/17 11:28:00;;;;;;;2.78;2.45;;;12.50;94.90;;;;;;5036467;28;20068;-28
2023/02/17 11:30:26;;;;;;;;;;;12.40;95.90;;;;;;5045826;28;20100;-32
2023/02/17 11:32:54;;;;;;;3.22;2.22;;;12.50;96.00;;;;;;5038606;28;20396;-31
2023/02/17 11:35:40;;;;;;;5.85;2.90;;;12.50;94.60;;;;;;5036326;28;20033;-30
2023/02/17 11:38:13;;;;;;;3.45;2.03;;;12.40;96.20;;;;;;5035029;28;20123;-29
2023/02/17 11:40:41;;;;;;;3.58;2.35;;;12.50;94.90;;;;;;5044435;28;20029;-29
2023/02/17 11:43:06;;;;;;;3.25;2.47;;;12.40;95.00;;;;;;5041055;28;20033;-29
2023/02/17 11:45:48;;;;;;;2.42;2.00;;;12.40;97.00;;;;;;5037446;28;20033;-29
2023/02/17 11:48:35;;;;;;;3.55;2.35;;;12.30;97.30;;;;;;5050637;28;20072;-31
2023/02/17 11:51:33;;;;;;;4.23;2.90;;;12.40;97.60;;;;;;5044026;28;20022;-28
2023/02/17 11:54:10;;;;;;;2.97;2.10;;;12.40;95.80;;;;;;5045761;28;20048;-29
2023/02/17 11:56:39;;;;;;;5.47;2.23;;;12.40;96.30;;;;;;5038766;28;20505;-30
2023/02/17 11:59:29;;;;;;;4.30;2.50;;;12.40;96.80;;;;;;5044281;28;20286;-30
2023/02/17 12:02:10;;;;;;;5.47;3.28;;;12.40;96.20;;;;;;5046926;28;20283;-29
2023/02/17 12:05:03;;;;;;;4.95;3.25;;;12.40;95.80;;;;;;5034106;28;20597;-28
2023/02/17 12:07:35;;;;;;;5.55;3.08;;;12.30;95.40;;;;;;5049926;28;20017;-28
2023/02/17 12:10:23;;;;;;;3.58;2.58;;;12.30;96.40;;;;;;5044790;28;20440;-32
2023/02/17 12:13:04;;;;;;;;;;;12.30;97.10;;;;;;5047545;28;20037;-30
2023/02/17 12:16:00;;;;;;;4.43;2.28;;;12.40;96.90;;;;;;5043205;28;19939;-29
2023/02/17 12:18:48;;;;;;;4.75;3.40;;;12.50;98.60;;;;;;5074259;28;20028;-28
2023/02/17 12:21:19;;;;;;;4.13;2.90;;;12.60;97.40;;;;;;5048900;28;20068;-30
2023/02/17 12:24:13;;;;;;;4.03;3.13;;;12.80;98.50;;;;;;5041178;28;20111;-28
2023/02/17 12:26:49;;;;;;;4.65;3.42;;;12.80;98.60;;;;;;5044548;28;20021;-28
2023/02/17 12:29:34;;;;;;;3.47;2.42;;;12.70;96.90;;;;;;5039669;28;20033;-29
2023/02/17 12:32:28;;;;;;;12.38;2.50;;;12.70;99.70;;;;;;5058033;28;20107;-29
2023/02/17 12:35:00;;;;;;;4.30;2.28;;;12.60;97.80;;;;;;5040351;28;20402;-28
2023/02/17 12:37:37;;;;;;;4.15;2.97;;;12.60;97.90;;;;;;5050178;28;20057;-29
2023/02/17 12:40:46;;;;;;;7.22;2.67;;;12.60;98.40;;;;;;5050739;28;20068;-28
2023/02/17 12:43:41;;;;;;;7.05;2.63;;;12.50;99.90;;;;;;4969305;28;20081;-28
2023/02/17 12:46:11;;;;;;;5.03;3.03;;;12.40;99.10;;;;;;5034887;28;20025;-32
2023/02/17 12:48:56;;;;;;;4.65;2.45;;;12.50;98.80;;;;;;5048532;28;20060;-29
2023/02/17 12:51:37;;;;;;;3.03;2.28;;;12.50;99.90;;;;;;5041627;28;20036;-33
2023/02/17 12:54:19;;;;;;;5.55;2.88;;;12.50;99.10;;;;;;5037494;28;20092;-30
2023/02/17 12:56:49;;;;;;;3.17;2.08;;;12.50;98.40;;;;;;5043912;28;20026;-30
2023/02/17 12:59:19;;;;;;;4.55;2.75;;;12.50;99.50;;;;;;5044234;28;20036;-29
2023/02/17 13:01:55;;;;;;;5.72;3.17;;;12.40;99.20;;;;;;5046578;28;20445;-29
2023/02/17 13:04:25;;;;;;;4.85;3.47;;;12.40;98.80;;;;;;5041581;28;20375;-30
2023/02/17 13:06:59;;;;;;;2.67;2.30;;;12.40;98.80;;;;;;5045550;28;20029;-30
2023/02/17 13:09:31;;;;;;;4.25;2.67;;;12.40;99.90;;;;;;5041596;28;20029;-30
2023/02/17 13:12:07;;;;;;;3.60;2.28;;;12.40;99.50;;;;;;5043456;28;20116;-30
2023/02/17 13:15:01;;;;;;;5.13;3.25;;;12.40;99.60;;;;;;5039440;28;20513;-29
2023/02/17 13:17:39;;;;;;;3.97;2.88;;;12.30;99.60;;;;;;5046825;28;20048;-30
2023/02/17 13:20:11;;;;;;;3.05;2.45;;;12.30;99.00;;;;;;5049073;28;20033;-31
2023/02/17 13:22:41;;;;;;;5.20;2.55;;;12.30;99.90;;;;;;5046212;28;20029;-30